Time;durP1;ratioP1;P1;durP2;ratioP2;P2;SDS_P1;SDS_P2;PMS_P1;PMS_P2;Temp;Humidity;BMP_temperature;BMP_pressure;BME280_temperature;BME280_humidity;BME280_pressure;Samples;Min_cycle;Max_cycle;Signal;HPM_P1;HPM_P2
2022/12/01 00:00:44;;;;;;;0.00;0.00;;;4.70;99.90;;;;;;5051831;28;20224;-65
2022/12/01 00:03:09;;;;;;;0.10;0.10;;;4.70;99.90;;;;;;5051511;28;20203;-65
2022/12/01 00:05:35;;;;;;;0.00;0.00;;;4.60;99.90;;;;;;5051200;28;20220;-65
2022/12/01 00:08:01;;;;;;;0.10;0.10;;;4.60;99.90;;;;;;5051808;28;20246;-65
2022/12/01 00:10:27;;;;;;;0.00;0.00;;;4.70;99.90;;;;;;5051248;28;20336;-65
2022/12/01 00:12:55;;;;;;;0.60;0.60;;;4.60;99.90;;;;;;5051381;28;20224;-66
2022/12/01 00:15:22;;;;;;;1.13;0.10;;;4.60;99.90;;;;;;5051557;28;20192;-65
2022/12/01 00:17:48;;;;;;;0.00;0.00;;;4.60;99.90;;;;;;5051259;28;20174;-65
2022/12/01 00:20:15;;;;;;;0.10;0.05;;;4.60;99.90;;;;;;5049995;28;20194;-65
2022/12/01 00:22:44;;;;;;;0.00;0.00;;;4.60;99.90;;;;;;5051170;28;20212;-66
2022/12/01 00:25:12;;;;;;;0.20;0.20;;;4.50;99.90;;;;;;5051324;28;20238;-66
2022/12/01 00:27:37;;;;;;;0.00;0.00;;;4.50;99.90;;;;;;5051391;28;20662;-65
2022/12/01 00:30:04;;;;;;;0.00;0.00;;;4.50;99.90;;;;;;5051177;28;20301;-66
2022/12/01 00:32:30;;;;;;;0.08;0.08;;;4.50;99.90;;;;;;5051123;28;20193;-65
2022/12/01 00:34:56;;;;;;;0.15;0.15;;;4.40;99.90;;;;;;5050122;28;20204;-65
2022/12/01 00:37:21;;;;;;;0.10;0.10;;;4.40;99.90;;;;;;5051494;28;20178;-65
2022/12/01 00:39:47;;;;;;;0.88;0.88;;;4.30;99.90;;;;;;5050990;28;20714;-66
2022/12/01 00:42:12;;;;;;;0.00;0.00;;;4.30;99.90;;;;;;5050130;28;20189;-65
2022/12/01 00:44:38;;;;;;;0.00;0.00;;;4.30;99.90;;;;;;5051246;28;20204;-66
2022/12/01 00:47:03;;;;;;;0.10;0.10;;;4.30;99.90;;;;;;5051181;28;20201;-65
2022/12/01 00:49:29;;;;;;;0.13;0.13;;;4.30;99.90;;;;;;5051122;28;20247;-65
2022/12/01 00:51:55;;;;;;;0.03;0.03;;;4.30;99.90;;;;;;5050974;28;20608;-65
2022/12/01 00:54:20;;;;;;;0.00;0.00;;;4.30;99.90;;;;;;5051126;28;20213;-65
2022/12/01 00:56:46;;;;;;;0.05;0.05;;;4.30;99.90;;;;;;5051929;28;20185;-65
2022/12/01 00:59:12;;;;;;;0.00;0.00;;;4.30;99.90;;;;;;5055101;28;20647;-65
2022/12/01 01:01:37;;;;;;;0.22;0.15;;;4.30;99.90;;;;;;5055010;28;20698;-65
2022/12/01 01:04:03;;;;;;;0.00;0.00;;;4.30;99.90;;;;;;5054585;28;20177;-65
2022/12/01 01:06:28;;;;;;;0.20;0.20;;;4.30;99.90;;;;;;5054619;28;20232;-65
2022/12/01 01:08:54;;;;;;;0.00;0.00;;;4.30;99.90;;;;;;5053092;28;20731;-65
2022/12/01 01:11:20;;;;;;;0.30;0.20;;;4.30;99.90;;;;;;5054533;28;20237;-65
2022/12/01 01:13:45;;;;;;;0.20;0.20;;;4.30;99.90;;;;;;5054644;28;20632;-65
2022/12/01 01:16:18;;;;;;;0.10;0.10;;;4.30;99.90;;;;;;5054593;28;20625;-65
2022/12/01 01:18:44;;;;;;;0.10;0.10;;;4.30;99.90;;;;;;5054365;28;20178;-65
2022/12/01 01:21:16;;;;;;;0.00;0.00;;;4.20;99.90;;;;;;5054424;28;20276;-65
2022/12/01 01:23:42;;;;;;;0.10;0.10;;;4.20;99.90;;;;;;5054308;28;20185;-65
2022/12/01 01:26:20;;;;;;;0.00;0.00;;;4.20;99.90;;;;;;5054515;28;20264;-65
2022/12/01 01:28:46;;;;;;;0.08;0.08;;;4.20;99.90;;;;;;5054029;28;20629;-65
2022/12/01 01:31:14;;;;;;;0.00;0.00;;;4.20;99.90;;;;;;5054407;28;20308;-65
2022/12/01 01:33:40;;;;;;;0.15;0.15;;;4.20;99.90;;;;;;5054341;28;20276;-65
2022/12/01 01:36:06;;;;;;;0.00;0.00;;;4.20;99.90;;;;;;5053897;28;20217;-65
2022/12/01 01:38:33;;;;;;;1.55;0.45;;;4.20;99.90;;;;;;5040950;28;20177;-65
2022/12/01 01:40:58;;;;;;;0.13;0.13;;;4.20;99.90;;;;;;5054027;28;20648;-65
2022/12/01 01:43:41;;;;;;;0.00;0.00;;;4.10;99.90;;;;;;5054171;28;20209;-65
2022/12/01 01:46:09;;;;;;;0.30;0.30;;;4.10;99.90;;;;;;5053702;28;20181;-65
2022/12/01 01:48:37;;;;;;;0.10;0.10;;;4.10;99.90;;;;;;5038299;28;20257;-65
2022/12/01 01:51:03;;;;;;;0.00;0.00;;;4.00;99.90;;;;;;5053755;28;20672;-65
2022/12/01 01:53:30;;;;;;;0.20;0.20;;;4.00;99.90;;;;;;5053892;28;20299;-65
2022/12/01 01:55:56;;;;;;;0.17;0.17;;;4.00;99.90;;;;;;5053549;28;20188;-65
2022/12/01 01:58:22;;;;;;;0.25;0.25;;;4.00;99.90;;;;;;5053713;28;20592;-65
2022/12/01 02:00:48;;;;;;;0.20;0.20;;;4.00;99.90;;;;;;5053711;28;20529;-66
2022/12/01 02:03:15;;;;;;;0.35;0.35;;;4.00;99.90;;;;;;5053792;28;20185;-66
2022/12/01 02:05:43;;;;;;;0.10;0.10;;;4.00;99.90;;;;;;5053776;28;20182;-66
2022/12/01 02:08:11;;;;;;;0.10;0.10;;;4.00;99.90;;;;;;5053541;28;20209;-65
2022/12/01 02:10:55;;;;;;;0.10;0.10;;;4.00;99.90;;;;;;5053401;28;20229;-66
2022/12/01 02:13:32;;;;;;;0.03;0.03;;;4.00;99.90;;;;;;5053716;28;20545;-66
2022/12/01 02:16:07;;;;;;;0.30;0.30;;;3.90;99.90;;;;;;5052207;28;20537;-66
2022/12/01 02:18:36;;;;;;;0.00;0.00;;;3.90;99.90;;;;;;5053046;28;20636;-66
2022/12/01 02:21:23;;;;;;;0.30;0.30;;;3.90;99.90;;;;;;5053286;28;20182;-66
2022/12/01 02:24:14;;;;;;;0.00;0.00;;;3.90;99.90;;;;;;5052188;28;20196;-66
2022/12/01 02:26:58;;;;;;;0.57;0.57;;;3.90;99.90;;;;;;5053421;28;20256;-66
2022/12/01 02:30:02;;;;;;;0.00;0.00;;;3.90;99.90;;;;;;5052647;28;20184;-66
2022/12/01 02:32:52;;;;;;;0.03;0.03;;;3.90;99.90;;;;;;5052600;28;20185;-66
2022/12/01 02:35:30;;;;;;;0.00;0.00;;;3.90;99.90;;;;;;5052905;28;20217;-66
2022/12/01 02:38:08;;;;;;;0.75;0.57;;;3.90;99.90;;;;;;5051005;28;20192;-65
2022/12/01 02:40:40;;;;;;;0.15;0.15;;;3.80;99.90;;;;;;5051636;28;20541;-66
2022/12/01 02:43:44;;;;;;;0.10;0.10;;;3.80;99.90;;;;;;5043133;28;20181;-65
2022/12/01 02:46:38;;;;;;;0.00;0.00;;;3.80;99.90;;;;;;5016140;28;20178;-66
2022/12/01 02:49:10;;;;;;;0.17;0.17;;;3.80;99.90;;;;;;5029938;28;20272;-66
2022/12/01 02:51:38;;;;;;;0.00;0.00;;;3.80;99.90;;;;;;5052409;28;20213;-66
2022/12/01 02:54:05;;;;;;;0.00;0.00;;;3.80;99.90;;;;;;5052050;28;20272;-65
2022/12/01 02:56:30;;;;;;;0.10;0.10;;;3.80;99.90;;;;;;5051121;28;20181;-65
2022/12/01 02:58:56;;;;;;;0.00;0.00;;;3.80;99.90;;;;;;5052379;28;20633;-65
2022/12/01 03:02:10;;;;;;;0.10;0.10;;;3.70;99.90;;;;;;5052215;28;20636;-67
2022/12/01 03:04:52;;;;;;;0.10;0.10;;;3.70;99.90;;;;;;5031647;28;20205;-65
2022/12/01 03:07:28;;;;;;;0.00;0.00;;;3.70;99.90;;;;;;5052522;28;20173;-65
2022/12/01 03:10:09;;;;;;;0.10;0.10;;;3.70;99.90;;;;;;5051637;28;20221;-66
2022/12/01 03:12:42;;;;;;;0.28;0.28;;;3.70;99.90;;;;;;5052118;28;20235;-65
2022/12/01 03:15:27;;;;;;;0.20;0.20;;;3.70;99.90;;;;;;5052114;28;20577;-66
2022/12/01 03:18:11;;;;;;;0.00;0.00;;;3.70;99.90;;;;;;5045045;28;20213;-66
2022/12/01 03:20:50;;;;;;;0.00;0.00;;;3.70;99.90;;;;;;5051443;28;20181;-65
2022/12/01 03:23:19;;;;;;;0.40;0.40;;;3.70;99.90;;;;;;5051826;28;20659;-65
2022/12/01 03:25:50;;;;;;;0.38;0.38;;;3.70;99.90;;;;;;5051727;28;20177;-65
2022/12/01 03:28:20;;;;;;;0.10;0.08;;;3.70;99.90;;;;;;5051859;28;20173;-65
2022/12/01 03:30:49;;;;;;;0.00;0.00;;;3.70;99.90;;;;;;5051540;28;20299;-65
2022/12/01 03:33:21;;;;;;;0.05;0.05;;;3.70;99.90;;;;;;5051897;28;20269;-65
2022/12/01 03:35:56;;;;;;;0.10;0.10;;;3.70;99.90;;;;;;5051805;28;20292;-65
2022/12/01 03:38:27;;;;;;;0.00;0.00;;;3.70;99.90;;;;;;5051397;28;20238;-65
2022/12/01 03:41:02;;;;;;;0.00;0.00;;;3.70;99.90;;;;;;5035976;28;20177;-66
2022/12/01 03:43:34;;;;;;;0.00;0.00;;;3.70;99.90;;;;;;5051973;28;20238;-65
2022/12/01 03:46:28;;;;;;;0.15;0.15;;;3.70;99.90;;;;;;5050198;28;20173;-65
2022/12/01 03:48:54;;;;;;;0.40;0.40;;;3.70;99.90;;;;;;5051698;28;20260;-65
2022/12/01 03:51:36;;;;;;;0.00;0.00;;;3.70;99.90;;;;;;5051137;28;20308;-66
2022/12/01 03:54:04;;;;;;;0.20;0.20;;;3.70;99.90;;;;;;5050999;28;20208;-65
2022/12/01 03:56:36;;;;;;;0.20;0.20;;;3.70;99.90;;;;;;5051417;28;20189;-65
2022/12/01 03:59:03;;;;;;;0.08;0.08;;;3.70;99.90;;;;;;5043794;28;20581;-65
2022/12/01 04:01:31;;;;;;;0.28;0.28;;;3.70;99.90;;;;;;5051536;28;20174;-65
2022/12/01 04:04:08;;;;;;;0.20;0.20;;;3.80;99.90;;;;;;5051187;28;20181;-66
2022/12/01 04:06:34;;;;;;;0.00;0.00;;;3.80;99.90;;;;;;5051533;28;20188;-65
2022/12/01 04:08:59;;;;;;;0.00;0.00;;;3.80;99.90;;;;;;5051687;28;20174;-65
2022/12/01 04:14:10;;;;;;;0.00;0.00;;;3.80;99.90;;;;;;5051525;28;20609;-65
2022/12/01 04:16:35;;;;;;;0.10;0.10;;;3.80;99.90;;;;;;5050835;28;20264;-65
2022/12/01 04:19:00;;;;;;;0.10;0.10;;;3.80;99.90;;;;;;5049984;28;20212;-66
2022/12/01 04:21:26;;;;;;;0.20;0.20;;;3.80;99.90;;;;;;5051302;28;20208;-66
2022/12/01 04:24:00;;;;;;;0.28;0.20;;;3.80;99.90;;;;;;5049600;28;20272;-66
2022/12/01 04:26:32;;;;;;;0.25;0.25;;;3.80;99.90;;;;;;5051568;28;20183;-65
2022/12/01 04:29:04;;;;;;;0.05;0.05;;;3.80;99.90;;;;;;5050648;28;20629;-66
2022/12/01 04:31:30;;;;;;;0.10;0.10;;;3.80;99.90;;;;;;5052016;28;20235;-66
2022/12/01 04:33:57;;;;;;;0.00;0.00;;;3.90;99.90;;;;;;5055236;28;20238;-64
2022/12/01 04:36:23;;;;;;;0.50;0.50;;;3.90;99.90;;;;;;5054821;28;20246;-63
2022/12/01 04:38:49;;;;;;;0.65;0.65;;;3.90;99.90;;;;;;5053038;28;20582;-64
2022/12/01 04:41:15;;;;;;;0.30;0.30;;;3.90;99.90;;;;;;5055074;28;20272;-64
2022/12/01 04:43:41;;;;;;;0.00;0.00;;;3.90;99.90;;;;;;5054070;28;20185;-65
2022/12/01 04:46:07;;;;;;;0.20;0.20;;;3.90;99.90;;;;;;5055184;28;20188;-66
2022/12/01 04:48:37;;;;;;;0.00;0.00;;;3.90;99.90;;;;;;5054365;28;20197;-66
2022/12/01 04:51:04;;;;;;;0.00;0.00;;;3.90;99.90;;;;;;5052804;28;20209;-70
2022/12/01 04:53:30;;;;;;;0.10;0.10;;;3.80;99.90;;;;;;5053884;28;20181;-74
2022/12/01 04:55:56;;;;;;;0.00;0.00;;;3.80;99.90;;;;;;5054989;28;20188;-75
2022/12/01 04:58:21;;;;;;;0.38;0.38;;;3.80;99.90;;;;;;5055075;28;20177;-69
2022/12/01 05:00:47;;;;;;;0.10;0.10;;;3.70;99.90;;;;;;5055019;28;20188;-71
2022/12/01 05:03:13;;;;;;;0.05;0.05;;;3.70;99.90;;;;;;5054658;28;20196;-72
2022/12/01 05:05:39;;;;;;;0.00;0.00;;;3.70;99.90;;;;;;5054763;28;20535;-65
2022/12/01 05:08:04;;;;;;;0.00;0.00;;;3.70;99.90;;;;;;5055185;28;20182;-66
2022/12/01 05:10:30;;;;;;;0.00;0.00;;;3.70;99.90;;;;;;5054393;28;20240;-67
2022/12/01 05:12:57;;;;;;;0.00;0.00;;;3.70;99.90;;;;;;5053707;28;20243;-64
2022/12/01 05:15:23;;;;;;;0.00;0.00;;;3.70;99.90;;;;;;5054388;28;20176;-65
2022/12/01 05:17:48;;;;;;;0.00;0.00;;;3.70;99.90;;;;;;5054126;28;20181;-68
2022/12/01 05:23:03;;;;;;;0.00;0.00;;;3.70;99.90;;;;;;5054887;28;20583;-68
2022/12/01 05:25:29;;;;;;;0.00;0.00;;;3.70;99.90;;;;;;5053208;28;20185;-68
2022/12/01 05:27:55;;;;;;;0.30;0.30;;;3.70;99.90;;;;;;5054524;28;20185;-68
2022/12/01 05:30:20;;;;;;;0.35;0.35;;;3.70;99.90;;;;;;5054226;28;20259;-67
2022/12/01 05:32:46;;;;;;;0.10;0.10;;;3.70;99.90;;;;;;5054295;28;20182;-68
2022/12/01 05:35:11;;;;;;;0.03;0.03;;;3.70;99.90;;;;;;5054156;28;20184;-67
2022/12/01 05:37:37;;;;;;;0.00;0.00;;;3.70;99.90;;;;;;5054381;28;20270;-68
2022/12/01 05:40:03;;;;;;;0.00;0.00;;;3.70;99.90;;;;;;5054336;28;20714;-68
2022/12/01 05:42:29;;;;;;;0.30;0.30;;;3.70;99.90;;;;;;5053192;28;20181;-68
2022/12/01 05:44:54;;;;;;;0.20;0.20;;;3.70;99.90;;;;;;5053919;28;20231;-68
2022/12/01 05:47:20;;;;;;;0.10;0.10;;;3.70;99.90;;;;;;5053916;28;20181;-68
2022/12/01 05:49:45;;;;;;;0.38;0.38;;;3.70;99.90;;;;;;5053716;28;20653;-68
2022/12/01 05:52:11;;;;;;;0.00;0.00;;;3.70;99.90;;;;;;5053839;28;20636;-68
2022/12/01 05:54:36;;;;;;;0.00;0.00;;;3.80;99.90;;;;;;5054004;28;20174;-68
2022/12/01 05:57:02;;;;;;;0.15;0.13;;;3.80;99.90;;;;;;5054083;28;20640;-68
2022/12/01 05:59:27;;;;;;;0.50;0.50;;;3.80;99.90;;;;;;5053750;28;20185;-68
2022/12/01 06:01:53;;;;;;;0.00;0.00;;;3.80;99.90;;;;;;5053820;28;20189;-68
2022/12/01 06:04:18;;;;;;;0.00;0.00;;;3.70;99.90;;;;;;5053898;28;20555;-68
2022/12/01 06:06:44;;;;;;;0.00;0.00;;;3.80;99.90;;;;;;5053836;28;20177;-68
2022/12/01 06:09:10;;;;;;;0.15;0.15;;;3.80;99.90;;;;;;5052297;28;20508;-68
2022/12/01 06:11:35;;;;;;;0.50;0.25;;;3.80;99.90;;;;;;5053441;28;20306;-68
2022/12/01 06:14:01;;;;;;;0.00;0.00;;;3.70;99.90;;;;;;5053617;28;20235;-68
2022/12/01 06:16:26;;;;;;;0.20;0.20;;;3.80;99.90;;;;;;5053661;28;20178;-68
2022/12/01 06:18:52;;;;;;;0.00;0.00;;;3.70;99.90;;;;;;5053351;28;20185;-68
2022/12/01 06:21:17;;;;;;;0.00;0.00;;;3.80;99.90;;;;;;5053184;28;20196;-68
2022/12/01 06:23:43;;;;;;;0.20;0.20;;;3.80;99.90;;;;;;5053313;28;20177;-68
2022/12/01 06:26:09;;;;;;;0.10;0.05;;;3.80;99.90;;;;;;5051882;28;20238;-68
2022/12/01 06:28:34;;;;;;;0.17;0.17;;;3.80;99.90;;;;;;5053102;28;20173;-67
2022/12/01 06:31:00;;;;;;;0.00;0.00;;;3.80;99.90;;;;;;5053097;28;20707;-67
2022/12/01 06:33:25;;;;;;;0.22;0.22;;;3.80;99.90;;;;;;5053105;28;20192;-67
2022/12/01 06:36:02;;;;;;;0.00;0.00;;;3.80;99.90;;;;;;5053114;28;20178;-68
2022/12/01 06:38:32;;;;;;;0.22;0.22;;;3.80;99.90;;;;;;5052989;28;20185;-68
2022/12/01 06:40:58;;;;;;;0.00;0.00;;;3.80;99.90;;;;;;5033478;28;20190;-68
2022/12/01 06:43:23;;;;;;;0.15;0.15;;;3.80;99.90;;;;;;5033499;28;20170;-68
2022/12/01 06:45:49;;;;;;;0.32;0.32;;;3.80;99.90;;;;;;5051881;28;20174;-68
2022/12/01 06:48:15;;;;;;;0.00;0.00;;;3.80;99.90;;;;;;5053168;28;20178;-67
2022/12/01 06:50:40;;;;;;;0.00;0.00;;;3.80;99.90;;;;;;5052962;28;20217;-68
2022/12/01 06:53:06;;;;;;;0.00;0.00;;;3.90;99.90;;;;;;5051754;28;20603;-68
2022/12/01 06:55:32;;;;;;;0.25;0.25;;;3.90;99.90;;;;;;5051665;28;20739;-68
2022/12/01 06:57:59;;;;;;;0.32;0.32;;;3.90;99.90;;;;;;5051531;28;20200;-68
2022/12/01 07:00:24;;;;;;;0.00;0.00;;;3.90;99.90;;;;;;5052988;28;20186;-68
2022/12/01 07:02:50;;;;;;;0.00;0.00;;;3.90;99.90;;;;;;5052795;28;20586;-68
2022/12/01 07:05:16;;;;;;;0.13;0.13;;;3.90;99.90;;;;;;5052682;28;20207;-68
2022/12/01 07:07:41;;;;;;;0.28;0.28;;;3.90;99.90;;;;;;5052312;28;20185;-68
2022/12/01 07:10:09;;;;;;;0.20;0.20;;;3.90;99.90;;;;;;5052400;28;20232;-68
2022/12/01 07:12:35;;;;;;;0.00;0.00;;;3.90;99.90;;;;;;5052559;28;20192;-68
2022/12/01 07:15:01;;;;;;;0.00;0.00;;;3.80;99.90;;;;;;5052526;28;20181;-68
2022/12/01 07:17:27;;;;;;;0.17;0.17;;;3.80;99.90;;;;;;5052513;28;20181;-67
2022/12/01 07:19:52;;;;;;;0.00;0.00;;;3.80;99.90;;;;;;5052081;28;20189;-68
2022/12/01 07:22:18;;;;;;;0.00;0.00;;;3.90;99.90;;;;;;5052320;28;20177;-68
2022/12/01 07:24:43;;;;;;;0.00;0.00;;;3.80;99.90;;;;;;5052119;28;20284;-67
2022/12/01 07:27:09;;;;;;;0.00;0.00;;;3.90;99.90;;;;;;5051176;28;20270;-65
2022/12/01 07:29:34;;;;;;;0.20;0.20;;;3.80;99.90;;;;;;5052059;28;20264;-67
2022/12/01 07:32:00;;;;;;;0.35;0.35;;;3.90;99.90;;;;;;5052123;28;20185;-67
2022/12/01 07:34:25;;;;;;;0.28;0.28;;;3.90;99.90;;;;;;5052022;28;20652;-67
2022/12/01 07:36:51;;;;;;;0.10;0.10;;;3.90;99.90;;;;;;5052206;28;20185;-67
2022/12/01 07:39:17;;;;;;;0.00;0.00;;;3.90;99.90;;;;;;5052257;28;20681;-67
2022/12/01 07:41:42;;;;;;;0.32;0.32;;;3.80;99.90;;;;;;5052419;28;20625;-67
2022/12/01 07:44:11;;;;;;;0.45;0.20;;;3.90;99.90;;;;;;5051101;28;20178;-67
2022/12/01 07:46:37;;;;;;;0.00;0.00;;;3.90;99.90;;;;;;5050879;28;20181;-66
2022/12/01 07:49:05;;;;;;;0.25;0.25;;;3.90;99.90;;;;;;5052141;28;20174;-67
2022/12/01 07:51:31;;;;;;;0.75;0.75;;;3.90;99.90;;;;;;5052098;28;20213;-67
2022/12/01 07:54:01;;;;;;;0.15;0.15;;;3.90;99.90;;;;;;5052067;28;20574;-66
2022/12/01 07:56:27;;;;;;;0.20;0.20;;;3.90;99.90;;;;;;5052122;28;20584;-66
2022/12/01 07:58:53;;;;;;;0.43;0.43;;;4.00;99.90;;;;;;5051914;28;20256;-67
2022/12/01 08:01:20;;;;;;;0.20;0.20;;;4.00;99.90;;;;;;5052142;28;20223;-67
2022/12/01 08:03:50;;;;;;;0.00;0.00;;;4.00;99.90;;;;;;5052026;28;20637;-67
2022/12/01 08:06:17;;;;;;;0.10;0.10;;;4.00;99.90;;;;;;5051864;28;20188;-67
2022/12/01 08:08:43;;;;;;;0.30;0.30;;;3.90;99.90;;;;;;5051966;28;20535;-66
2022/12/01 08:11:17;;;;;;;0.40;0.40;;;4.00;99.90;;;;;;5050589;28;20398;-67
2022/12/01 08:13:43;;;;;;;0.15;0.15;;;4.00;99.90;;;;;;5051923;28;20173;-67
2022/12/01 08:16:12;;;;;;;0.85;0.20;;;4.00;99.90;;;;;;5050730;28;20192;-67
2022/12/01 08:18:38;;;;;;;0.03;0.03;;;4.00;99.90;;;;;;5049635;28;20270;-67
2022/12/01 08:21:05;;;;;;;0.00;0.00;;;4.00;99.90;;;;;;5051361;28;20217;-67
2022/12/01 08:23:31;;;;;;;0.00;0.00;;;4.00;99.90;;;;;;5046052;28;20232;-66
2022/12/01 08:26:01;;;;;;;0.10;0.10;;;4.00;99.90;;;;;;5031885;28;20178;-67
2022/12/01 08:28:26;;;;;;;0.00;0.00;;;3.90;99.90;;;;;;5031934;28;20174;-67
2022/12/01 08:30:52;;;;;;;0.52;0.20;;;4.00;99.90;;;;;;5045857;28;20244;-67
2022/12/01 08:33:18;;;;;;;0.40;0.40;;;4.00;99.90;;;;;;5051787;28;20165;-67
2022/12/01 08:35:43;;;;;;;0.00;0.00;;;4.00;99.90;;;;;;5051352;28;20271;-66
2022/12/01 08:38:09;;;;;;;0.68;0.68;;;4.00;99.90;;;;;;5051814;28;20227;-67
2022/12/01 08:40:35;;;;;;;0.20;0.20;;;4.00;99.90;;;;;;5051754;28;20196;-66
2022/12/01 08:43:00;;;;;;;0.00;0.00;;;4.00;99.90;;;;;;5051624;28;20182;-66
2022/12/01 08:45:26;;;;;;;0.00;0.00;;;4.10;99.90;;;;;;5051579;28;20580;-66
2022/12/01 08:47:57;;;;;;;0.00;0.00;;;4.10;99.90;;;;;;5051619;28;20204;-66
2022/12/01 08:50:26;;;;;;;0.22;0.22;;;4.10;99.90;;;;;;5051252;28;20635;-66
2022/12/01 08:52:52;;;;;;;0.00;0.00;;;4.00;99.90;;;;;;5051272;28;20224;-66
2022/12/01 08:55:18;;;;;;;0.00;0.00;;;4.10;99.90;;;;;;5051228;28;20182;-70
2022/12/01 08:57:44;;;;;;;0.30;0.30;;;4.10;99.90;;;;;;5050901;28;20185;-67
2022/12/01 09:00:11;;;;;;;0.00;0.00;;;4.10;99.90;;;;;;5051059;28;20260;-68
2022/12/01 09:02:36;;;;;;;0.17;0.17;;;4.10;99.90;;;;;;5049894;28;20182;-69
2022/12/01 09:05:02;;;;;;;0.20;0.20;;;4.10;99.90;;;;;;5051153;28;20212;-71
2022/12/01 09:07:27;;;;;;;0.08;0.08;;;4.10;99.90;;;;;;5051232;28;20173;-71
2022/12/01 09:09:53;;;;;;;0.00;0.00;;;4.10;99.90;;;;;;5050360;28;20257;-71
2022/12/01 09:12:19;;;;;;;0.00;0.00;;;4.10;99.90;;;;;;5051122;28;20181;-70
2022/12/01 09:14:48;;;;;;;0.38;0.38;;;4.20;99.90;;;;;;5051165;28;20189;-70
2022/12/01 09:17:15;;;;;;;0.00;0.00;;;4.10;99.90;;;;;;5051231;28;20268;-72
2022/12/01 09:19:42;;;;;;;0.43;0.43;;;4.20;99.90;;;;;;5054300;28;20507;-72
2022/12/01 09:22:08;;;;;;;0.00;0.00;;;4.20;99.90;;;;;;5054766;28;20192;-72
2022/12/01 09:24:34;;;;;;;0.00;0.00;;;4.20;99.90;;;;;;5054651;28;20177;-72
2022/12/01 09:27:02;;;;;;;0.20;0.20;;;4.20;99.90;;;;;;5054635;28;20184;-72
2022/12/01 09:29:28;;;;;;;0.03;0.03;;;4.30;99.90;;;;;;5053316;28;20522;-73
2022/12/01 09:31:57;;;;;;;0.98;0.30;;;4.30;99.90;;;;;;5054352;28;20262;-72
2022/12/01 09:34:24;;;;;;;0.03;0.03;;;4.30;99.90;;;;;;5054296;28;20181;-72
2022/12/01 09:36:49;;;;;;;0.00;0.00;;;4.30;99.90;;;;;;5053663;28;20184;-72
2022/12/01 09:39:17;;;;;;;0.00;0.00;;;4.40;99.90;;;;;;5054582;28;20182;-72
2022/12/01 09:41:48;;;;;;;0.00;0.00;;;4.40;99.90;;;;;;5054534;28;20254;-72
2022/12/01 09:44:29;;;;;;;0.08;0.03;;;4.40;99.90;;;;;;5054645;28;20176;-72
2022/12/01 09:47:17;;;;;;;0.30;0.30;;;4.40;99.90;;;;;;5053060;28;20179;-73
2022/12/01 09:50:03;;;;;;;0.10;0.10;;;4.40;99.90;;;;;;5050821;28;20189;-73
2022/12/01 09:52:48;;;;;;;0.00;0.00;;;4.40;99.90;;;;;;5054180;28;20738;-73
2022/12/01 09:55:20;;;;;;;0.00;0.00;;;4.40;99.90;;;;;;5053977;28;20177;-73
2022/12/01 09:57:54;;;;;;;0.10;0.10;;;4.50;99.90;;;;;;5053890;28;20211;-73
2022/12/01 10:00:21;;;;;;;0.10;0.10;;;4.50;99.90;;;;;;5054181;28;20330;-73
2022/12/01 10:03:15;;;;;;;0.25;0.25;;;4.50;99.90;;;;;;5053939;28;20260;-73
2022/12/01 10:05:43;;;;;;;0.20;0.20;;;4.50;99.90;;;;;;5054016;28;20216;-73
2022/12/01 10:08:17;;;;;;;0.00;0.00;;;4.50;99.90;;;;;;5053808;28;20182;-73
2022/12/01 10:10:48;;;;;;;0.10;0.10;;;4.60;99.90;;;;;;5037361;28;20221;-73
2022/12/01 10:13:19;;;;;;;0.13;0.13;;;4.60;99.90;;;;;;5053848;28;20181;-73
2022/12/01 10:15:50;;;;;;;0.20;0.20;;;4.60;99.90;;;;;;5053772;28;20177;-73
2022/12/01 10:18:30;;;;;;;0.20;0.20;;;4.70;99.90;;;;;;5053130;28;20184;-73
2022/12/01 10:21:17;;;;;;;0.05;0.05;;;4.60;99.90;;;;;;5053517;28;20177;-73
2022/12/01 10:23:48;;;;;;;0.00;0.00;;;4.70;99.90;;;;;;5053545;28;20539;-73
2022/12/01 10:26:27;;;;;;;0.10;0.10;;;4.70;99.90;;;;;;5052029;28;20272;-73
2022/12/01 10:29:01;;;;;;;0.25;0.25;;;4.70;99.90;;;;;;5053385;28;20181;-73
2022/12/01 10:31:35;;;;;;;0.40;0.40;;;4.70;99.90;;;;;;5053273;28;20743;-73
2022/12/01 10:34:12;;;;;;;0.60;0.60;;;4.80;99.90;;;;;;5053291;28;20267;-73
2022/12/01 10:36:37;;;;;;;0.00;0.00;;;4.80;99.90;;;;;;5053540;28;20188;-73
2022/12/01 10:39:05;;;;;;;0.00;0.00;;;4.80;99.90;;;;;;5053240;28;20185;-74
2022/12/01 10:41:34;;;;;;;0.00;0.00;;;4.90;99.90;;;;;;5053295;28;20189;-73
2022/12/01 10:44:04;;;;;;;0.00;0.00;;;4.90;99.90;;;;;;5053178;28;20212;-73
2022/12/01 10:46:40;;;;;;;0.00;0.00;;;4.90;99.90;;;;;;5053044;28;20697;-73
2022/12/01 10:49:10;;;;;;;0.00;0.00;;;5.00;99.90;;;;;;5053286;28;20220;-74
2022/12/01 10:51:56;;;;;;;0.00;0.00;;;5.00;99.90;;;;;;5052972;28;20212;-73
2022/12/01 10:54:30;;;;;;;0.00;0.00;;;5.00;99.90;;;;;;5052821;28;20241;-73
2022/12/01 10:56:57;;;;;;;0.00;0.00;;;5.10;99.90;;;;;;5052963;28;20188;-72
2022/12/01 10:59:42;;;;;;;0.05;0.05;;;5.10;99.90;;;;;;5052918;28;20176;-72
2022/12/01 11:02:16;;;;;;;0.00;0.00;;;5.10;99.90;;;;;;5052976;28;20620;-73
2022/12/01 11:04:50;;;;;;;0.00;0.00;;;5.10;99.90;;;;;;5036014;28;20588;-73
2022/12/01 11:07:29;;;;;;;0.20;0.20;;;5.10;99.90;;;;;;5052757;28;20722;-73
2022/12/01 11:10:18;;;;;;;0.00;0.00;;;5.10;99.90;;;;;;5052378;28;20225;-73
2022/12/01 11:12:57;;;;;;;0.00;0.00;;;5.10;99.90;;;;;;5032858;28;20185;-73
2022/12/01 11:15:33;;;;;;;0.10;0.10;;;5.00;99.90;;;;;;5052645;28;20181;-72
2022/12/01 11:18:20;;;;;;;0.20;0.20;;;5.00;99.90;;;;;;5052535;28;20181;-72
2022/12/01 11:20:47;;;;;;;0.40;0.40;;;5.10;99.90;;;;;;5037120;28;20195;-72
2022/12/01 11:23:23;;;;;;;0.15;0.15;;;5.10;99.90;;;;;;5052451;28;20169;-72
2022/12/01 11:26:12;;;;;;;0.13;0.13;;;5.10;99.90;;;;;;5052414;28;20181;-72
2022/12/01 11:28:48;;;;;;;0.20;0.20;;;5.10;99.90;;;;;;5050949;28;20655;-72
2022/12/01 11:31:14;;;;;;;0.08;0.08;;;5.20;99.90;;;;;;5050895;28;20552;-73
2022/12/01 11:33:53;;;;;;;0.00;0.00;;;5.30;99.90;;;;;;5052368;28;20190;-72
2022/12/01 11:36:23;;;;;;;0.30;0.30;;;5.40;99.90;;;;;;5052072;28;20185;-73
2022/12/01 11:38:58;;;;;;;0.00;0.00;;;5.50;99.90;;;;;;5052141;28;20190;-72
2022/12/01 11:41:31;;;;;;;0.10;0.10;;;5.50;99.90;;;;;;5051884;28;20183;-73
2022/12/01 11:44:00;;;;;;;0.00;0.00;;;5.60;99.90;;;;;;5052037;28;20580;-73
2022/12/01 11:46:34;;;;;;;0.00;0.00;;;5.70;99.90;;;;;;5051892;28;20185;-73
2022/12/01 11:49:00;;;;;;;0.75;0.13;;;5.70;99.90;;;;;;5052171;28;20633;-73
2022/12/01 11:51:30;;;;;;;0.00;0.00;;;5.80;99.90;;;;;;5051967;28;20213;-73
2022/12/01 11:54:18;;;;;;;0.20;0.20;;;5.80;99.90;;;;;;5051964;28;20173;-73
2022/12/01 11:56:45;;;;;;;0.00;0.00;;;5.90;99.90;;;;;;5051547;28;20546;-73
2022/12/01 11:59:14;;;;;;;0.00;0.00;;;5.90;99.90;;;;;;5051795;28;20373;-73
2022/12/01 12:02:10;;;;;;;0.00;0.00;;;6.00;99.90;;;;;;5043166;28;20535;-73
2022/12/01 12:05:00;;;;;;;0.03;0.03;;;5.90;99.90;;;;;;5051708;28;20652;-73
2022/12/01 12:07:39;;;;;;;0.85;0.55;;;5.90;99.90;;;;;;5051896;28;20224;-73
2022/12/01 12:10:41;;;;;;;0.10;0.10;;;5.90;99.90;;;;;;5051535;28;20279;-72
2022/12/01 12:13:28;;;;;;;0.20;0.20;;;5.90;99.90;;;;;;5038440;28;20171;-72
2022/12/01 12:16:09;;;;;;;0.35;0.35;;;5.90;99.90;;;;;;5050269;28;20594;-73
2022/12/01 12:19:18;;;;;;;0.00;0.00;;;6.00;99.90;;;;;;5050266;28;20177;-73
2022/12/01 12:22:02;;;;;;;0.05;0.05;;;6.00;99.90;;;;;;5051667;28;20189;-73
2022/12/01 12:24:46;;;;;;;0.20;0.20;;;6.00;99.90;;;;;;5050004;28;20526;-68
2022/12/01 12:27:53;;;;;;;0.10;0.10;;;6.10;99.90;;;;;;5051669;28;20177;-73
2022/12/01 12:30:22;;;;;;;0.00;0.00;;;6.10;99.90;;;;;;5028917;28;20249;-71
2022/12/01 12:33:06;;;;;;;0.30;0.30;;;6.00;99.90;;;;;;5012857;28;20203;-71
2022/12/01 12:36:13;;;;;;;0.30;0.30;;;6.10;99.90;;;;;;5039067;28;20208;-70
2022/12/01 12:38:56;;;;;;;1.35;0.25;;;6.10;99.90;;;;;;5028837;28;20246;-74
2022/12/01 12:41:47;;;;;;;0.60;0.38;;;6.10;99.90;;;;;;5051423;28;20556;-75
2022/12/01 12:44:28;;;;;;;0.00;0.00;;;6.20;99.90;;;;;;5050193;28;20187;-74
2022/12/01 12:47:11;;;;;;;0.00;0.00;;;6.20;99.90;;;;;;5051033;28;20223;-74
2022/12/01 12:50:18;;;;;;;0.00;0.00;;;6.20;99.90;;;;;;5051546;28;20199;-74
2022/12/01 12:52:52;;;;;;;0.10;0.10;;;6.10;99.90;;;;;;5035417;28;20660;-73
2022/12/01 12:55:31;;;;;;;0.32;0.20;;;6.10;99.90;;;;;;5055334;28;20226;-73
2022/12/01 12:58:18;;;;;;;0.13;0.13;;;6.10;99.90;;;;;;5055062;28;20278;-73
2022/12/01 13:01:21;;;;;;;0.00;0.00;;;6.10;99.90;;;;;;5055028;28;20674;-72
2022/12/01 13:03:54;;;;;;;0.08;0.08;;;6.10;99.90;;;;;;5055073;28;20189;-73
2022/12/01 13:06:39;;;;;;;0.00;0.00;;;6.10;99.90;;;;;;5055168;28;20193;-73
2022/12/01 13:09:13;;;;;;;0.00;0.00;;;6.10;99.90;;;;;;5054959;28;20169;-73
2022/12/01 13:12:00;;;;;;;0.08;0.08;;;6.20;99.90;;;;;;5053369;28;20228;-73
2022/12/01 13:14:33;;;;;;;0.00;0.00;;;6.20;99.90;;;;;;5054985;28;20189;-74
2022/12/01 13:17:09;;;;;;;0.28;0.28;;;6.30;99.90;;;;;;5054672;28;20189;-74
2022/12/01 13:19:39;;;;;;;0.00;0.00;;;6.30;99.90;;;;;;5054944;28;20181;-73
2022/12/01 13:22:06;;;;;;;0.00;0.00;;;6.30;99.90;;;;;;5054695;28;20177;-74
2022/12/01 13:24:32;;;;;;;0.00;0.00;;;6.40;99.90;;;;;;5054799;28;20535;-73